sensor_id;sensor_type;location;lat;lon;timestamp;pressure;altitude;pressure_sealevel;temperature;humidity
56831;BME280;42713;42.676;23.352;2022-09-02T00:00:50;94476.91;;;21.66;67.73
56831;BME280;42713;42.676;23.352;2022-09-02T00:03:16;94480.69;;;21.65;67.97
56831;BME280;42713;42.676;23.352;2022-09-02T00:05:42;94475.38;;;21.65;67.82
56831;BME280;42713;42.676;23.352;2022-09-02T00:08:08;94476.91;;;21.66;68.04
56831;BME280;42713;42.676;23.352;2022-09-02T00:10:37;94465.00;;;21.63;68.32
56831;BME280;42713;42.676;23.352;2022-09-02T00:13:04;94467.03;;;21.66;68.33
56831;BME280;42713;42.676;23.352;2022-09-02T00:15:29;94465.28;;;21.70;67.99
56831;BME280;42713;42.676;23.352;2022-09-02T00:17:55;94457.63;;;21.69;67.97
56831;BME280;42713;42.676;23.352;2022-09-02T00:20:22;94474.06;;;21.71;67.77
56831;BME280;42713;42.676;23.352;2022-09-02T00:22:47;94468.13;;;21.74;67.94
56831;BME280;42713;42.676;23.352;2022-09-02T00:25:13;94471.56;;;21.74;68.38
56831;BME280;42713;42.676;23.352;2022-09-02T00:27:39;94466.09;;;21.71;68.08
56831;BME280;42713;42.676;23.352;2022-09-02T00:30:05;94476.41;;;21.72;68.51
56831;BME280;42713;42.676;23.352;2022-09-02T00:32:31;94474.41;;;21.69;68.02
56831;BME280;42713;42.676;23.352;2022-09-02T00:34:57;94487.41;;;21.71;68.33
56831;BME280;42713;42.676;23.352;2022-09-02T00:37:25;94493.84;;;21.70;68.31
56831;BME280;42713;42.676;23.352;2022-09-02T00:39:52;94486.94;;;21.69;68.30
56831;BME280;42713;42.676;23.352;2022-09-02T00:42:19;94491.94;;;21.70;68.46
56831;BME280;42713;42.676;23.352;2022-09-02T00:44:45;94495.25;;;21.67;68.78
56831;BME280;42713;42.676;23.352;2022-09-02T00:47:11;94490.69;;;21.68;68.55
56831;BME280;42713;42.676;23.352;2022-09-02T00:49:38;94492.13;;;21.65;68.88
56831;BME280;42713;42.676;23.352;2022-09-02T00:55:07;94493.84;;;21.61;69.17
56831;BME280;42713;42.676;23.352;2022-09-02T00:57:40;94493.69;;;21.57;69.42
56831;BME280;42713;42.676;23.352;2022-09-02T01:02:41;94495.44;;;21.53;69.45
56831;BME280;42713;42.676;23.352;2022-09-02T01:05:09;94497.00;;;21.54;69.30
56831;BME280;42713;42.676;23.352;2022-09-02T01:07:37;94495.88;;;21.55;68.76
56831;BME280;42713;42.676;23.352;2022-09-02T01:10:06;94500.44;;;21.55;68.24
56831;BME280;42713;42.676;23.352;2022-09-02T01:12:33;94501.06;;;21.52;68.36
56831;BME280;42713;42.676;23.352;2022-09-02T01:15:00;94498.56;;;21.46;68.60
56831;BME280;42713;42.676;23.352;2022-09-02T01:17:26;94495.75;;;21.43;68.56
56831;BME280;42713;42.676;23.352;2022-09-02T01:19:58;94493.25;;;21.38;68.61
56831;BME280;42713;42.676;23.352;2022-09-02T01:22:28;94496.72;;;21.38;67.80
56831;BME280;42713;42.676;23.352;2022-09-02T01:24:56;94493.56;;;21.36;67.72
56831;BME280;42713;42.676;23.352;2022-09-02T01:27:24;94492.63;;;21.32;67.50
56831;BME280;42713;42.676;23.352;2022-09-02T01:29:55;94511.28;;;21.32;67.51
56831;BME280;42713;42.676;23.352;2022-09-02T01:32:22;94496.38;;;21.31;67.08
56831;BME280;42713;42.676;23.352;2022-09-02T01:34:48;94502.22;;;21.24;67.29
56831;BME280;42713;42.676;23.352;2022-09-02T01:37:14;94494.22;;;21.15;68.17
56831;BME280;42713;42.676;23.352;2022-09-02T01:39:40;94488.13;;;21.06;67.91
56831;BME280;42713;42.676;23.352;2022-09-02T01:42:05;94488.91;;;20.98;68.37
56831;BME280;42713;42.676;23.352;2022-09-02T01:44:33;94479.38;;;20.79;69.23
56831;BME280;42713;42.676;23.352;2022-09-02T01:46:59;94469.00;;;20.69;69.76
56831;BME280;42713;42.676;23.352;2022-09-02T01:49:24;94466.63;;;20.67;70.13
56831;BME280;42713;42.676;23.352;2022-09-02T01:51:53;94467.28;;;20.47;69.66
56831;BME280;42713;42.676;23.352;2022-09-02T01:54:19;94452.84;;;20.39;70.69
56831;BME280;42713;42.676;23.352;2022-09-02T01:56:44;94448.16;;;20.36;69.71
56831;BME280;42713;42.676;23.352;2022-09-02T01:59:10;94445.31;;;20.24;69.46
56831;BME280;42713;42.676;23.352;2022-09-02T02:01:42;94442.50;;;20.29;68.43
56831;BME280;42713;42.676;23.352;2022-09-02T02:04:07;94441.72;;;20.28;68.18
56831;BME280;42713;42.676;23.352;2022-09-02T02:06:34;94449.53;;;20.25;67.26
56831;BME280;42713;42.676;23.352;2022-09-02T02:08:59;94441.09;;;20.23;67.72
56831;BME280;42713;42.676;23.352;2022-09-02T02:11:25;94438.28;;;20.28;66.85
56831;BME280;42713;42.676;23.352;2022-09-02T02:13:50;94436.09;;;20.30;66.98
56831;BME280;42713;42.676;23.352;2022-09-02T02:16:15;94443.44;;;20.33;67.00
56831;BME280;42713;42.676;23.352;2022-09-02T02:18:41;94443.63;;;20.36;67.21
56831;BME280;42713;42.676;23.352;2022-09-02T02:21:07;94441.72;;;20.37;67.33
56831;BME280;42713;42.676;23.352;2022-09-02T02:23:33;94445.97;;;20.38;67.93
56831;BME280;42713;42.676;23.352;2022-09-02T02:25:58;94445.19;;;20.46;67.51
56831;BME280;42713;42.676;23.352;2022-09-02T02:28:24;94444.41;;;20.55;67.70
56831;BME280;42713;42.676;23.352;2022-09-02T02:30:49;94448.78;;;20.59;67.84
56831;BME280;42713;42.676;23.352;2022-09-02T02:33:15;94452.72;;;20.62;67.55
56831;BME280;42713;42.676;23.352;2022-09-02T02:35:41;94461.63;;;20.66;67.89
56831;BME280;42713;42.676;23.352;2022-09-02T02:38:07;94464.78;;;20.68;67.87
56831;BME280;42713;42.676;23.352;2022-09-02T02:40:34;94463.03;;;20.72;67.58
56831;BME280;42713;42.676;23.352;2022-09-02T02:43:00;94462.44;;;20.75;67.32
56831;BME280;42713;42.676;23.352;2022-09-02T02:45:25;94462.91;;;20.77;67.54
56831;BME280;42713;42.676;23.352;2022-09-02T02:47:51;94464.50;;;20.78;67.64
56831;BME280;42713;42.676;23.352;2022-09-02T02:50:19;94467.00;;;20.75;67.69
56831;BME280;42713;42.676;23.352;2022-09-02T02:52:45;94463.53;;;20.74;67.95
56831;BME280;42713;42.676;23.352;2022-09-02T02:55:12;94454.78;;;20.74;67.68
56831;BME280;42713;42.676;23.352;2022-09-02T02:57:38;94461.69;;;20.75;67.90
56831;BME280;42713;42.676;23.352;2022-09-02T03:00:14;94451.13;;;20.69;67.97
56831;BME280;42713;42.676;23.352;2022-09-02T03:02:41;94454.75;;;20.65;68.34
56831;BME280;42713;42.676;23.352;2022-09-02T03:05:09;94464.63;;;20.64;68.92
56831;BME280;42713;42.676;23.352;2022-09-02T03:07:35;94473.69;;;20.63;69.17
56831;BME280;42713;42.676;23.352;2022-09-02T03:10:00;94467.13;;;20.61;69.77
56831;BME280;42713;42.676;23.352;2022-09-02T03:12:27;94463.66;;;20.60;70.16
56831;BME280;42713;42.676;23.352;2022-09-02T03:14:53;94463.66;;;20.60;69.54
56831;BME280;42713;42.676;23.352;2022-09-02T03:17:19;94463.66;;;20.60;69.48
56831;BME280;42713;42.676;23.352;2022-09-02T03:19:44;94458.50;;;20.55;69.80
56831;BME280;42713;42.676;23.352;2022-09-02T03:22:11;94457.56;;;20.51;69.75
56831;BME280;42713;42.676;23.352;2022-09-02T03:24:37;94457.88;;;20.49;69.94
56831;BME280;42713;42.676;23.352;2022-09-02T03:27:03;94450.50;;;20.46;70.31
56831;BME280;42713;42.676;23.352;2022-09-02T03:29:28;94461.16;;;20.46;70.45
56831;BME280;42713;42.676;23.352;2022-09-02T03:31:54;94451.91;;;20.44;70.08
56831;BME280;42713;42.676;23.352;2022-09-02T03:34:20;94456.00;;;20.41;69.57
56831;BME280;42713;42.676;23.352;2022-09-02T03:36:45;94453.63;;;20.40;70.24
56831;BME280;42713;42.676;23.352;2022-09-02T03:39:11;94468.19;;;20.42;70.52
56831;BME280;42713;42.676;23.352;2022-09-02T03:41:37;94466.91;;;20.40;70.55
56831;BME280;42713;42.676;23.352;2022-09-02T03:44:05;94468.34;;;20.37;71.08
56831;BME280;42713;42.676;23.352;2022-09-02T03:46:31;94467.84;;;20.35;70.99
56831;BME280;42713;42.676;23.352;2022-09-02T03:48:57;94477.41;;;20.36;70.40
56831;BME280;42713;42.676;23.352;2022-09-02T03:51:24;94485.09;;;20.37;70.54
56831;BME280;42713;42.676;23.352;2022-09-02T03:53:50;94493.03;;;20.29;71.52
56831;BME280;42713;42.676;23.352;2022-09-02T03:56:17;94499.13;;;20.29;71.56
56831;BME280;42713;42.676;23.352;2022-09-02T03:58:43;94496.94;;;20.23;71.96
56831;BME280;42713;42.676;23.352;2022-09-02T04:01:15;94506.03;;;20.30;71.74
56831;BME280;42713;42.676;23.352;2022-09-02T04:03:42;94504.44;;;20.29;71.85
56831;BME280;42713;42.676;23.352;2022-09-02T04:06:12;94507.91;;;20.30;71.81
56831;BME280;42713;42.676;23.352;2022-09-02T04:08:38;94511.50;;;20.34;71.43
56831;BME280;42713;42.676;23.352;2022-09-02T04:11:09;94516.81;;;20.25;72.33
56831;BME280;42713;42.676;23.352;2022-09-02T04:13:35;94518.66;;;20.25;72.32
56831;BME280;42713;42.676;23.352;2022-09-02T04:16:09;94513.06;;;20.26;72.67
56831;BME280;42713;42.676;23.352;2022-09-02T04:18:35;94517.59;;;20.26;72.55
56831;BME280;42713;42.676;23.352;2022-09-02T04:21:01;94535.59;;;20.29;72.65
56831;BME280;42713;42.676;23.352;2022-09-02T04:23:26;94530.28;;;20.29;72.54
56831;BME280;42713;42.676;23.352;2022-09-02T04:25:53;94529.19;;;20.30;72.32
56831;BME280;42713;42.676;23.352;2022-09-02T04:28:19;94528.69;;;20.28;72.59
56831;BME280;42713;42.676;23.352;2022-09-02T04:30:45;94526.38;;;20.26;72.40
56831;BME280;42713;42.676;23.352;2022-09-02T04:33:10;94529.78;;;20.27;72.51
56831;BME280;42713;42.676;23.352;2022-09-02T04:35:41;94527.63;;;20.29;72.39
56831;BME280;42713;42.676;23.352;2022-09-02T04:38:07;94537.44;;;20.28;72.42
56831;BME280;42713;42.676;23.352;2022-09-02T04:40:32;94537.66;;;20.32;72.49
56831;BME280;42713;42.676;23.352;2022-09-02T04:42:58;94536.53;;;20.33;72.35
56831;BME280;42713;42.676;23.352;2022-09-02T04:45:25;94537.81;;;20.35;72.69
56831;BME280;42713;42.676;23.352;2022-09-02T04:47:50;94538.41;;;20.32;72.67
56831;BME280;42713;42.676;23.352;2022-09-02T04:50:16;94541.84;;;20.33;72.68
56831;BME280;42713;42.676;23.352;2022-09-02T04:52:41;94543.13;;;20.35;72.44
56831;BME280;42713;42.676;23.352;2022-09-02T04:55:08;94538.25;;;20.29;72.68
56831;BME280;42713;42.676;23.352;2022-09-02T04:57:33;94545.47;;;20.37;72.22
56831;BME280;42713;42.676;23.352;2022-09-02T05:00:02;94542.50;;;20.38;72.35
56831;BME280;42713;42.676;23.352;2022-09-02T05:02:29;94548.59;;;20.39;71.96
56831;BME280;42713;42.676;23.352;2022-09-02T05:04:54;94547.03;;;20.38;72.39
56831;BME280;42713;42.676;23.352;2022-09-02T05:07:19;94546.59;;;20.45;72.11
56831;BME280;42713;42.676;23.352;2022-09-02T05:09:45;94551.13;;;20.44;71.86
56831;BME280;42713;42.676;23.352;2022-09-02T05:12:10;94546.88;;;20.43;71.61
56831;BME280;42713;42.676;23.352;2022-09-02T05:14:36;94541.88;;;20.42;71.78
56831;BME280;42713;42.676;23.352;2022-09-02T05:17:02;94544.72;;;20.45;71.68
56831;BME280;42713;42.676;23.352;2022-09-02T05:19:29;94552.41;;;20.47;71.33
56831;BME280;42713;42.676;23.352;2022-09-02T05:21:55;94553.66;;;20.49;71.68
56831;BME280;42713;42.676;23.352;2022-09-02T05:24:24;94551.75;;;20.50;71.75
56831;BME280;42713;42.676;23.352;2022-09-02T05:26:49;94558.53;;;20.56;72.17
56831;BME280;42713;42.676;23.352;2022-09-02T05:29:15;94560.88;;;20.58;71.61
56831;BME280;42713;42.676;23.352;2022-09-02T05:31:43;94562.28;;;20.55;70.96
56831;BME280;42713;42.676;23.352;2022-09-02T05:34:09;94551.00;;;20.49;71.52
56831;BME280;42713;42.676;23.352;2022-09-02T05:36:35;94558.31;;;20.52;71.67
56831;BME280;42713;42.676;23.352;2022-09-02T05:39:00;94559.91;;;20.53;71.36
56831;BME280;42713;42.676;23.352;2022-09-02T05:41:26;94553.66;;;20.49;71.36
56831;BME280;42713;42.676;23.352;2022-09-02T05:43:55;94562.88;;;20.52;71.81
56831;BME280;42713;42.676;23.352;2022-09-02T05:46:22;94549.09;;;20.50;72.95
56831;BME280;42713;42.676;23.352;2022-09-02T05:48:49;94555.81;;;20.47;73.43
56831;BME280;42713;42.676;23.352;2022-09-02T05:51:37;94551.28;;;20.48;73.14
56831;BME280;42713;42.676;23.352;2022-09-02T05:54:05;94549.41;;;20.48;73.04
56831;BME280;42713;42.676;23.352;2022-09-02T05:56:30;94548.16;;;20.55;72.85
56831;BME280;42713;42.676;23.352;2022-09-02T05:58:56;94548.19;;;20.63;72.89
56831;BME280;42713;42.676;23.352;2022-09-02T06:01:23;94534.91;;;20.63;73.74
56831;BME280;42713;42.676;23.352;2022-09-02T06:03:49;94554.03;;;20.74;74.11
56831;BME280;42713;42.676;23.352;2022-09-02T06:06:18;94552.81;;;20.80;73.78
56831;BME280;42713;42.676;23.352;2022-09-02T06:08:44;94549.50;;;20.83;73.63
56831;BME280;42713;42.676;23.352;2022-09-02T06:11:11;94548.28;;;20.90;73.53
56831;BME280;42713;42.676;23.352;2022-09-02T06:13:39;94553.44;;;20.95;73.12
56831;BME280;42713;42.676;23.352;2022-09-02T06:16:06;94544.34;;;20.96;72.85
56831;BME280;42713;42.676;23.352;2022-09-02T06:18:34;94556.41;;;21.02;72.12
56831;BME280;42713;42.676;23.352;2022-09-02T06:21:02;94552.66;;;21.03;71.90
56831;BME280;42713;42.676;23.352;2022-09-02T06:23:28;94551.25;;;21.06;71.94
56831;BME280;42713;42.676;23.352;2022-09-02T06:25:53;94539.34;;;21.03;71.85
56831;BME280;42713;42.676;23.352;2022-09-02T06:28:19;94552.03;;;21.06;72.70
56831;BME280;42713;42.676;23.352;2022-09-02T06:30:45;94556.41;;;21.11;72.38
56831;BME280;42713;42.676;23.352;2022-09-02T06:33:12;94560.03;;;21.15;72.33
56831;BME280;42713;42.676;23.352;2022-09-02T06:35:41;94557.69;;;21.22;72.34
56831;BME280;42713;42.676;23.352;2022-09-02T06:38:08;94558.91;;;21.25;72.23
56831;BME280;42713;42.676;23.352;2022-09-02T06:40:36;94560.97;;;21.28;72.33
56831;BME280;42713;42.676;23.352;2022-09-02T06:43:02;94559.88;;;21.29;71.46
56831;BME280;42713;42.676;23.352;2022-09-02T06:45:27;94562.69;;;21.33;71.22
56831;BME280;42713;42.676;23.352;2022-09-02T06:47:53;94569.41;;;21.39;71.69
56831;BME280;42713;42.676;23.352;2022-09-02T06:50:19;94569.13;;;21.40;71.37
56831;BME280;42713;42.676;23.352;2022-09-02T06:52:45;94576.78;;;21.42;70.87
56831;BME280;42713;42.676;23.352;2022-09-02T06:55:11;94577.56;;;21.42;70.12
56831;BME280;42713;42.676;23.352;2022-09-02T06:57:37;94571.13;;;21.43;70.42
56831;BME280;42713;42.676;23.352;2022-09-02T07:00:08;94567.03;;;21.46;70.69
56831;BME280;42713;42.676;23.352;2022-09-02T07:02:35;94569.88;;;21.50;70.10
56831;BME280;42713;42.676;23.352;2022-09-02T07:05:00;94575.22;;;21.50;69.89
56831;BME280;42713;42.676;23.352;2022-09-02T07:07:37;94581.31;;;21.50;69.92
56831;BME280;42713;42.676;23.352;2022-09-02T07:10:05;94591.34;;;21.53;69.96
56831;BME280;42713;42.676;23.352;2022-09-02T07:12:33;94589.47;;;21.54;69.80
56831;BME280;42713;42.676;23.352;2022-09-02T07:14:59;94591.22;;;21.58;69.76
56831;BME280;42713;42.676;23.352;2022-09-02T07:17:25;94584.47;;;21.61;69.91
56831;BME280;42713;42.676;23.352;2022-09-02T07:19:50;94582.75;;;21.65;70.03
56831;BME280;42713;42.676;23.352;2022-09-02T07:22:16;94588.22;;;21.69;70.57
56831;BME280;42713;42.676;23.352;2022-09-02T07:24:42;94587.59;;;21.72;69.93
56831;BME280;42713;42.676;23.352;2022-09-02T07:27:08;94590.41;;;21.75;69.43
56831;BME280;42713;42.676;23.352;2022-09-02T07:29:35;94600.91;;;21.81;69.81
56831;BME280;42713;42.676;23.352;2022-09-02T07:32:00;94589.13;;;21.82;69.81
56831;BME280;42713;42.676;23.352;2022-09-02T07:34:26;94589.13;;;21.90;70.52
56831;BME280;42713;42.676;23.352;2022-09-02T07:36:53;94591.94;;;21.94;70.50
56831;BME280;42713;42.676;23.352;2022-09-02T07:39:19;94586.59;;;21.94;70.29
56831;BME280;42713;42.676;23.352;2022-09-02T07:41:47;94593.03;;;22.02;69.68
56831;BME280;42713;42.676;23.352;2022-09-02T07:44:15;94594.72;;;22.06;70.30
56831;BME280;42713;42.676;23.352;2022-09-02T07:46:42;94590.16;;;22.07;69.77
56831;BME280;42713;42.676;23.352;2022-09-02T07:49:10;94587.97;;;22.09;68.48
56831;BME280;42713;42.676;23.352;2022-09-02T07:51:39;94584.97;;;22.11;67.65
56831;BME280;42713;42.676;23.352;2022-09-02T07:54:08;94581.22;;;22.12;67.15
56831;BME280;42713;42.676;23.352;2022-09-02T07:56:35;94581.53;;;22.19;66.68
56831;BME280;42713;42.676;23.352;2022-09-02T07:59:00;94588.56;;;22.23;66.75
56831;BME280;42713;42.676;23.352;2022-09-02T08:01:27;94599.38;;;22.27;66.39
56831;BME280;42713;42.676;23.352;2022-09-02T08:03:53;94598.09;;;22.24;66.53
56831;BME280;42713;42.676;23.352;2022-09-02T08:06:19;94606.59;;;22.27;67.15
56831;BME280;42713;42.676;23.352;2022-09-02T08:08:45;94595.59;;;22.28;67.02
56831;BME280;42713;42.676;23.352;2022-09-02T08:11:11;94609.09;;;22.32;67.90
56831;BME280;42713;42.676;23.352;2022-09-02T08:13:37;94606.44;;;22.32;68.59
56831;BME280;42713;42.676;23.352;2022-09-02T08:16:03;94603.63;;;22.28;68.27
56831;BME280;42713;42.676;23.352;2022-09-02T08:18:29;94607.06;;;22.29;67.54
56831;BME280;42713;42.676;23.352;2022-09-02T08:20:54;94608.63;;;22.30;67.02
56831;BME280;42713;42.676;23.352;2022-09-02T08:23:20;94606.28;;;22.28;67.75
56831;BME280;42713;42.676;23.352;2022-09-02T08:25:46;94607.19;;;22.32;68.69
56831;BME280;42713;42.676;23.352;2022-09-02T08:28:11;94602.50;;;22.29;67.38
56831;BME280;42713;42.676;23.352;2022-09-02T08:30:37;94608.78;;;22.24;66.30
56831;BME280;42713;42.676;23.352;2022-09-02T08:33:03;94605.81;;;22.26;66.54
56831;BME280;42713;42.676;23.352;2022-09-02T08:35:28;94612.25;;;22.25;66.32
56831;BME280;42713;42.676;23.352;2022-09-02T08:37:57;94602.88;;;22.19;66.05
56831;BME280;42713;42.676;23.352;2022-09-02T08:40:24;94601.28;;;22.18;65.56
56831;BME280;42713;42.676;23.352;2022-09-02T08:42:55;94599.41;;;22.18;65.38
56831;BME280;42713;42.676;23.352;2022-09-02T08:45:27;94598.94;;;22.16;65.54
56831;BME280;42713;42.676;23.352;2022-09-02T08:50:33;94593.16;;;22.05;65.43
56831;BME280;42713;42.676;23.352;2022-09-02T08:53:15;94598.78;;;22.13;65.40
56831;BME280;42713;42.676;23.352;2022-09-02T08:55:45;94595.03;;;22.14;66.39
56831;BME280;42713;42.676;23.352;2022-09-02T08:58:16;94594.84;;;22.19;65.93
56831;BME280;42713;42.676;23.352;2022-09-02T09:00:45;94593.09;;;22.23;65.44
56831;BME280;42713;42.676;23.352;2022-09-02T09:03:23;94592.16;;;22.28;65.09
56831;BME280;42713;42.676;23.352;2022-09-02T09:06:06;94606.44;;;22.32;64.12
56831;BME280;42713;42.676;23.352;2022-09-02T09:08:56;94589.75;;;22.35;63.58
56831;BME280;42713;42.676;23.352;2022-09-02T09:14:09;94589.91;;;22.47;64.17
56831;BME280;42713;42.676;23.352;2022-09-02T09:16:57;94587.81;;;22.53;63.97
56831;BME280;42713;42.676;23.352;2022-09-02T09:19:44;94586.88;;;22.58;63.84
56831;BME280;42713;42.676;23.352;2022-09-02T09:22:13;94574.44;;;22.62;63.52
56831;BME280;42713;42.676;23.352;2022-09-02T09:24:42;94582.72;;;22.69;63.79
56831;BME280;42713;42.676;23.352;2022-09-02T09:27:15;94581.13;;;22.77;63.41
56831;BME280;42713;42.676;23.352;2022-09-02T09:29:41;94576.81;;;22.84;63.22
56831;BME280;42713;42.676;23.352;2022-09-02T09:32:26;94578.00;;;22.96;62.75
56831;BME280;42713;42.676;23.352;2022-09-02T09:35:04;94573.25;;;23.01;61.64
56831;BME280;42713;42.676;23.352;2022-09-02T09:37:39;94576.50;;;23.07;60.99
56831;BME280;42713;42.676;23.352;2022-09-02T09:45:36;94564.09;;;23.33;61.42
56831;BME280;42713;42.676;23.352;2022-09-02T09:48:22;94561.78;;;23.43;61.34
56831;BME280;42713;42.676;23.352;2022-09-02T09:53:29;94565.09;;;23.61;61.27
56831;BME280;42713;42.676;23.352;2022-09-02T10:01:18;94574.38;;;23.76;60.05
56831;BME280;42713;42.676;23.352;2022-09-02T10:03:50;94575.97;;;23.77;59.29
56831;BME280;42713;42.676;23.352;2022-09-02T10:09:02;94575.16;;;23.77;59.21
56831;BME280;42713;42.676;23.352;2022-09-02T10:11:30;94576.72;;;23.78;59.33
56831;BME280;42713;42.676;23.352;2022-09-02T10:14:04;94579.09;;;23.80;59.29
56831;BME280;42713;42.676;23.352;2022-09-02T10:16:45;94568.81;;;23.82;59.22
56831;BME280;42713;42.676;23.352;2022-09-02T10:19:32;94570.50;;;23.86;59.72
56831;BME280;42713;42.676;23.352;2022-09-02T10:28:17;94569.69;;;23.95;60.01
56831;BME280;42713;42.676;23.352;2022-09-02T10:31:05;94563.75;;;24.01;59.30
56831;BME280;42713;42.676;23.352;2022-09-02T10:33:51;94555.66;;;24.10;58.77
56831;BME280;42713;42.676;23.352;2022-09-02T10:36:34;94564.34;;;24.19;58.06
56831;BME280;42713;42.676;23.352;2022-09-02T10:39:22;94566.47;;;24.26;58.34
56831;BME280;42713;42.676;23.352;2022-09-02T10:41:57;94566.38;;;24.35;57.93
56831;BME280;42713;42.676;23.352;2022-09-02T10:47:40;94565.16;;;24.45;58.21
56831;BME280;42713;42.676;23.352;2022-09-02T10:50:20;94565.38;;;24.52;58.12
56831;BME280;42713;42.676;23.352;2022-09-02T10:58:09;94565.97;;;24.70;56.03
56831;BME280;42713;42.676;23.352;2022-09-02T11:00:39;94563.84;;;24.76;56.28
56831;BME280;42713;42.676;23.352;2022-09-02T11:03:16;94565.25;;;24.85;56.36
56831;BME280;42713;42.676;23.352;2022-09-02T11:15:51;94544.78;;;25.46;55.12
56831;BME280;42713;42.676;23.352;2022-09-02T11:21:09;94540.56;;;26.06;53.67
56831;BME280;42713;42.676;23.352;2022-09-02T11:23:45;94538.16;;;26.17;53.33
56831;BME280;42713;42.676;23.352;2022-09-02T11:26:18;94536.25;;;26.17;53.20
56831;BME280;42713;42.676;23.352;2022-09-02T11:28:54;94536.97;;;26.14;51.39
56831;BME280;42713;42.676;23.352;2022-09-02T11:36:37;94527.16;;;26.38;52.40
56831;BME280;42713;42.676;23.352;2022-09-02T11:39:10;94521.59;;;26.47;52.19
56831;BME280;42713;42.676;23.352;2022-09-02T11:53:55;94499.47;;;26.34;51.57
56831;BME280;42713;42.676;23.352;2022-09-02T11:58:44;94489.50;;;26.18;51.49
56831;BME280;42713;42.676;23.352;2022-09-02T12:03:43;94497.97;;;26.04;51.64
56831;BME280;42713;42.676;23.352;2022-09-02T12:06:13;94503.41;;;25.92;51.67
56831;BME280;42713;42.676;23.352;2022-09-02T12:11:06;94513.19;;;25.68;51.60
56831;BME280;42713;42.676;23.352;2022-09-02T12:13:42;94508.41;;;25.61;51.79
56831;BME280;42713;42.676;23.352;2022-09-02T12:21:22;94501.44;;;25.44;52.48
56831;BME280;42713;42.676;23.352;2022-09-02T12:27:08;94491.25;;;25.50;52.80
56831;BME280;42713;42.676;23.352;2022-09-02T12:31:47;94485.94;;;25.66;52.46
56831;BME280;42713;42.676;23.352;2022-09-02T12:42:08;94466.44;;;26.01;52.26
56831;BME280;42713;42.676;23.352;2022-09-02T12:52:43;94456.75;;;26.64;50.69
56831;BME280;42713;42.676;23.352;2022-09-02T12:57:43;94455.19;;;26.63;50.36
56831;BME280;42713;42.676;23.352;2022-09-02T13:00:14;94451.16;;;26.53;50.94
56831;BME280;42713;42.676;23.352;2022-09-02T13:02:59;94454.03;;;26.45;51.28
56831;BME280;42713;42.676;23.352;2022-09-02T13:20:12;94455.75;;;25.85;53.22
56831;BME280;42713;42.676;23.352;2022-09-02T13:31:23;94458.47;;;25.41;55.03
56831;BME280;42713;42.676;23.352;2022-09-02T13:36:33;94455.28;;;25.23;55.38
56831;BME280;42713;42.676;23.352;2022-09-02T13:39:29;94448.63;;;25.16;56.00
56831;BME280;42713;42.676;23.352;2022-09-02T13:41:55;94460.38;;;25.12;55.69
56831;BME280;42713;42.676;23.352;2022-09-02T13:44:26;94461.47;;;25.11;57.25
56831;BME280;42713;42.676;23.352;2022-09-02T13:47:00;94465.09;;;25.02;57.38
56831;BME280;42713;42.676;23.352;2022-09-02T13:49:32;94468.78;;;24.98;58.08
56831;BME280;42713;42.676;23.352;2022-09-02T13:51:59;94472.97;;;24.83;57.55
56831;BME280;42713;42.676;23.352;2022-09-02T13:54:31;94477.13;;;24.68;59.22
56831;BME280;42713;42.676;23.352;2022-09-02T13:56:59;94482.56;;;24.59;60.70
56831;BME280;42713;42.676;23.352;2022-09-02T14:02:22;94492.31;;;24.39;62.28
56831;BME280;42713;42.676;23.352;2022-09-02T14:04:50;94500.13;;;24.19;61.48
56831;BME280;42713;42.676;23.352;2022-09-02T14:07:53;94499.75;;;23.84;62.78
56831;BME280;42713;42.676;23.352;2022-09-02T14:10:23;94506.75;;;23.76;63.73
56831;BME280;42713;42.676;23.352;2022-09-02T14:12:51;94523.91;;;23.75;65.73
56831;BME280;42713;42.676;23.352;2022-09-02T14:15:24;94536.34;;;23.58;66.42
56831;BME280;42713;42.676;23.352;2022-09-02T14:18:15;94551.63;;;23.37;69.87
56831;BME280;42713;42.676;23.352;2022-09-02T14:23:28;94556.31;;;22.97;73.16
56831;BME280;42713;42.676;23.352;2022-09-02T14:25:58;94552.91;;;22.88;73.51
56831;BME280;42713;42.676;23.352;2022-09-02T14:28:27;94543.41;;;22.78;74.81
56831;BME280;42713;42.676;23.352;2022-09-02T14:33:35;94551.66;;;22.64;78.58
56831;BME280;42713;42.676;23.352;2022-09-02T14:43:50;94537.09;;;22.62;79.89
56831;BME280;42713;42.676;23.352;2022-09-02T14:46:30;94548.88;;;22.61;79.60
56831;BME280;42713;42.676;23.352;2022-09-02T14:49:18;94551.84;;;22.59;79.76
56831;BME280;42713;42.676;23.352;2022-09-02T14:51:48;94558.75;;;22.60;79.42
56831;BME280;42713;42.676;23.352;2022-09-02T14:56:59;94567.72;;;22.56;77.83
56831;BME280;42713;42.676;23.352;2022-09-02T14:59:25;94567.59;;;22.52;78.84
56831;BME280;42713;42.676;23.352;2022-09-02T15:01:52;94565.41;;;22.45;79.63
56831;BME280;42713;42.676;23.352;2022-09-02T15:04:19;94565.41;;;22.45;79.78
56831;BME280;42713;42.676;23.352;2022-09-02T15:06:45;94557.28;;;22.42;80.15
56831;BME280;42713;42.676;23.352;2022-09-02T15:09:12;94560.09;;;22.36;80.56
56831;BME280;42713;42.676;23.352;2022-09-02T15:11:41;94564.63;;;22.36;80.92
56831;BME280;42713;42.676;23.352;2022-09-02T15:14:08;94559.31;;;22.36;77.19
56831;BME280;42713;42.676;23.352;2022-09-02T15:16:34;94570.13;;;22.39;77.40
56831;BME280;42713;42.676;23.352;2022-09-02T15:18:59;94566.06;;;22.33;78.85
56831;BME280;42713;42.676;23.352;2022-09-02T15:21:25;94565.47;;;22.28;80.26
56831;BME280;42713;42.676;23.352;2022-09-02T15:23:50;94569.69;;;22.29;80.56
56831;BME280;42713;42.676;23.352;2022-09-02T15:26:16;94571.75;;;22.32;79.34
56831;BME280;42713;42.676;23.352;2022-09-02T15:28:41;94572.84;;;22.31;79.60
56831;BME280;42713;42.676;23.352;2022-09-02T15:31:09;94571.59;;;22.28;79.51